首页
METAR-TAF:

METAR-TAF

机场 :

帕耶讷, 瑞士

纬度: 46-49N, 经度: 006-57E, 海拔: 490米

当前天气观测

该预报发布于18分钟前的03:20 UTC
风速1节,风向西南
温度 0°C
湿度 93%
气压 1008 hPa
能見度: 5000
少量云层高于300英尺

METAR: LSMP 170320Z AUTO 23001KT 5000NDV FEW003 M00/M01 Q1008 RMK

时间: 04:38 (03:38 UTC)


TAF: 丢失

超过4000个机场的气象观测和天气预报(METAR&TAF报告)。

可查询的气象台以黄色和红色小点在地图上表示。

将鼠标移到小点上方,可查看气象台名称。

然后点击查看天气观测和预报。

如需切换地图:点击带黑十字的绿色按钮放大地图;点击带横线的绿色按钮缩小地图;或者点击绿色箭头查看邻近地区的地图。


METAR-TAF: